TAP22 KPDX-CYQQ
Flight info
| Callsign | TAP22 |
|---|---|
| Flight time | 0h 51m |
| Altitude | 36000 |
| Route | ARRIE DCT TOU |
| Aircraft | A339/H-SADE1E2E3GHIJ3J5M1P2RWXY/LB2D1 |
Departure
| Time | 2026-04-14 21:37 |
|---|---|
| Airport | Portland International Airport (KPDX) |
Arrival
| Time | 2026-04-14 22:28 |
|---|---|
| Airport | Comox Valley International Airport / CFB Comox (CYQQ) |
| Time | Latitude | Longitude | Altitude | Speed | Heading |
|---|---|---|---|---|---|
| 2026-04-14 21:21 | 45.58489 | -122.59023 | 35 ft | 0 kts | 28° |
| 2026-04-14 21:23 | 45.58488 | -122.59024 | 35 ft | 1 kts | 28° |
| 2026-04-14 21:23 | 45.58482 | -122.59029 | 35 ft | 1 kts | 28° |
| 2026-04-14 21:23 | 45.58475 | -122.59035 | 34 ft | 1 kts | 21° |
| 2026-04-14 21:23 | 45.58468 | -122.59040 | 34 ft | 1 kts | 11° |
| 2026-04-14 21:24 | 45.58461 | -122.59043 | 34 ft | 1 kts | 359° |
| 2026-04-14 21:24 | 45.58453 | -122.59044 | 35 ft | 1 kts | 349° |
| 2026-04-14 21:24 | 45.58446 | -122.59042 | 35 ft | 1 kts | 338° |
| 2026-04-14 21:24 | 45.58438 | -122.59040 | 34 ft | 1 kts | 323° |
| 2026-04-14 21:25 | 45.58432 | -122.59034 | 35 ft | 1 kts | 308° |
| 2026-04-14 21:25 | 45.58427 | -122.59026 | 35 ft | 1 kts | 298° |
| 2026-04-14 21:25 | 45.58426 | -122.59026 | 35 ft | 0 kts | 298° |
| 2026-04-14 21:27 | 45.58428 | -122.59031 | 35 ft | 1 kts | 298° |
| 2026-04-14 21:28 | 45.58457 | -122.59108 | 37 ft | 16 kts | 297° |
| 2026-04-14 21:28 | 45.58511 | -122.59249 | 37 ft | 16 kts | 299° |
| 2026-04-14 21:28 | 45.58569 | -122.59398 | 39 ft | 19 kts | 298° |
| 2026-04-14 21:28 | 45.58636 | -122.59577 | 41 ft | 21 kts | 298° |
| 2026-04-14 21:29 | 45.58705 | -122.59755 | 43 ft | 20 kts | 301° |
| 2026-04-14 21:29 | 45.58773 | -122.59921 | 42 ft | 20 kts | 299° |
| 2026-04-14 21:29 | 45.58852 | -122.60123 | 41 ft | 25 kts | 298° |
| 2026-04-14 21:29 | 45.58938 | -122.60349 | 38 ft | 26 kts | 302° |
| 2026-04-14 21:30 | 45.58961 | -122.60390 | 39 ft | 0 kts | 310° |
| 2026-04-14 21:30 | 45.59018 | -122.60379 | 40 ft | 20 kts | 22° |
| 2026-04-14 21:31 | 45.59124 | -122.60209 | 38 ft | 23 kts | 38° |
| 2026-04-14 21:31 | 45.59239 | -122.60049 | 36 ft | 24 kts | 44° |
| 2026-04-14 21:31 | 45.59359 | -122.59877 | 36 ft | 24 kts | 45° |
| 2026-04-14 21:31 | 45.59411 | -122.59689 | 32 ft | 18 kts | 109° |
| 2026-04-14 21:32 | 45.59339 | -122.59520 | 35 ft | 24 kts | 118° |
| 2026-04-14 21:32 | 45.59255 | -122.59305 | 39 ft | 24 kts | 119° |
| 2026-04-14 21:32 | 45.59180 | -122.59112 | 43 ft | 21 kts | 119° |
| 2026-04-14 21:32 | 45.59110 | -122.58931 | 42 ft | 21 kts | 118° |
| 2026-04-14 21:33 | 45.59041 | -122.58753 | 40 ft | 21 kts | 118° |
| 2026-04-14 21:33 | 45.58970 | -122.58567 | 37 ft | 21 kts | 119° |
| 2026-04-14 21:33 | 45.58891 | -122.58365 | 38 ft | 30 kts | 119° |
| 2026-04-14 21:33 | 45.58768 | -122.58048 | 43 ft | 39 kts | 118° |
| 2026-04-14 21:34 | 45.58639 | -122.57725 | 41 ft | 37 kts | 119° |
| 2026-04-14 21:34 | 45.58514 | -122.57407 | 35 ft | 37 kts | 118° |
| 2026-04-14 21:34 | 45.58395 | -122.57101 | 36 ft | 31 kts | 119° |
| 2026-04-14 21:34 | 45.58351 | -122.56987 | 39 ft | 11 kts | 117° |
| 2026-04-14 21:35 | 45.58348 | -122.56923 | 40 ft | 2 kts | 70° |
| 2026-04-14 21:35 | 45.58413 | -122.56874 | 37 ft | 10 kts | 360° |
| 2026-04-14 21:35 | 45.58458 | -122.56944 | 35 ft | 7 kts | 297° |
| 2026-04-14 21:35 | 45.58459 | -122.56946 | 35 ft | 0 kts | 298° |
| 2026-04-14 21:36 | 45.58474 | -122.56987 | 35 ft | 28 kts | 298° |
| 2026-04-14 21:36 | 45.58717 | -122.57612 | 39 ft | 112 kts | 297° |
| 2026-04-14 21:36 | 45.59197 | -122.58868 | 59 ft | 170 kts | 296° |
| 2026-04-14 21:36 | 45.59810 | -122.60416 | 534 ft | 186 kts | 291° |
| 2026-04-14 21:37 | 45.60386 | -122.62127 | 1231 ft | 190 kts | 289° |
| 2026-04-14 21:37 | 45.61017 | -122.63813 | 2123 ft | 183 kts | 294° |
| 2026-04-14 21:37 | 45.61811 | -122.65317 | 2929 ft | 202 kts | 304° |
| 2026-04-14 21:37 | 45.62987 | -122.66532 | 3755 ft | 219 kts | 328° |
| 2026-04-14 21:38 | 45.64476 | -122.67326 | 4473 ft | 241 kts | 339° |
| 2026-04-14 21:38 | 45.66205 | -122.67899 | 4813 ft | 272 kts | 341° |
| 2026-04-14 21:38 | 45.68159 | -122.68440 | 5016 ft | 298 kts | 342° |
| 2026-04-14 21:38 | 45.70218 | -122.69077 | 5748 ft | 298 kts | 340° |
| 2026-04-14 21:39 | 45.72244 | -122.69748 | 6462 ft | 301 kts | 340° |
| 2026-04-14 21:39 | 45.74261 | -122.70410 | 7523 ft | 290 kts | 341° |
| 2026-04-14 21:39 | 45.76130 | -122.70988 | 9091 ft | 260 kts | 340° |
| 2026-04-14 21:39 | 45.77904 | -122.71555 | 9879 ft | 269 kts | 340° |
| 2026-04-14 21:40 | 45.79764 | -122.72210 | 10215 ft | 285 kts | 339° |
| 2026-04-14 21:40 | 45.81676 | -122.72935 | 10996 ft | 284 kts | 337° |
| 2026-04-14 21:40 | 45.83606 | -122.73639 | 11749 ft | 288 kts | 338° |
| 2026-04-14 21:40 | 45.85609 | -122.74388 | 11968 ft | 310 kts | 338° |
| 2026-04-14 21:41 | 45.87786 | -122.75243 | 11890 ft | 338 kts | 337° |
| 2026-04-14 21:41 | 45.90083 | -122.76165 | 12442 ft | 343 kts | 337° |
| 2026-04-14 21:41 | 45.92347 | -122.76934 | 13871 ft | 320 kts | 340° |
| 2026-04-14 21:41 | 45.94486 | -122.77565 | 14913 ft | 313 kts | 338° |
| 2026-04-14 21:42 | 45.96637 | -122.78227 | 15063 ft | 320 kts | 338° |
| 2026-04-14 21:42 | 45.98883 | -122.78954 | 15229 ft | 340 kts | 338° |
| 2026-04-14 21:42 | 46.01251 | -122.79758 | 15402 ft | 357 kts | 338° |
| 2026-04-14 21:42 | 46.03686 | -122.80615 | 15583 ft | 361 kts | 338° |
| 2026-04-14 21:43 | 46.06122 | -122.81488 | 15956 ft | 362 kts | 337° |
| 2026-04-14 21:43 | 46.08543 | -122.82381 | 16533 ft | 364 kts | 336° |
| 2026-04-14 21:43 | 46.10993 | -122.83289 | 17245 ft | 365 kts | 337° |
| 2026-04-14 21:43 | 46.13494 | -122.84153 | 17766 ft | 370 kts | 338° |
| 2026-04-14 21:44 | 46.16010 | -122.84995 | 18378 ft | 373 kts | 338° |
| 2026-04-14 21:44 | 46.17684 | -122.85558 | 18738 ft | 373 kts | 338° |
| 2026-04-14 21:44 | 46.20212 | -122.86434 | 19221 ft | 376 kts | 337° |
| 2026-04-14 21:44 | 46.22770 | -122.87333 | 19753 ft | 378 kts | 337° |
| 2026-04-14 21:45 | 46.26186 | -122.88520 | 20437 ft | 384 kts | 337° |
| 2026-04-14 21:45 | 46.27944 | -122.89136 | 20822 ft | 385 kts | 336° |
| 2026-04-14 21:45 | 46.30554 | -122.90063 | 21372 ft | 387 kts | 336° |
| 2026-04-14 21:45 | 46.33176 | -122.90999 | 21908 ft | 390 kts | 336° |
| 2026-04-14 21:46 | 46.35785 | -122.91932 | 22442 ft | 393 kts | 336° |
| 2026-04-14 21:46 | 46.38446 | -122.92879 | 23009 ft | 396 kts | 336° |
| 2026-04-14 21:46 | 46.41137 | -122.93834 | 23508 ft | 399 kts | 336° |
| 2026-04-14 21:46 | 46.43840 | -122.94801 | 24000 ft | 401 kts | 336° |
| 2026-04-14 21:47 | 46.46555 | -122.95769 | 24508 ft | 403 kts | 336° |
| 2026-04-14 21:47 | 46.49280 | -122.96739 | 24982 ft | 405 kts | 336° |
| 2026-04-14 21:47 | 46.52031 | -122.97721 | 25455 ft | 407 kts | 336° |
| 2026-04-14 21:47 | 46.54789 | -122.98708 | 25924 ft | 409 kts | 336° |
| 2026-04-14 21:48 | 46.57568 | -122.99702 | 26398 ft | 411 kts | 336° |
| 2026-04-14 21:48 | 46.60354 | -123.00697 | 26963 ft | 411 kts | 335° |
| 2026-04-14 21:48 | 46.63136 | -123.01688 | 27485 ft | 412 kts | 335° |
| 2026-04-14 21:48 | 46.65935 | -123.02694 | 27891 ft | 415 kts | 335° |
| 2026-04-14 21:49 | 46.68713 | -123.03695 | 28329 ft | 417 kts | 335° |
| 2026-04-14 21:49 | 46.71537 | -123.04712 | 28772 ft | 419 kts | 335° |
| 2026-04-14 21:49 | 46.74381 | -123.05736 | 29230 ft | 421 kts | 335° |
| 2026-04-14 21:49 | 46.77253 | -123.06772 | 29561 ft | 425 kts | 335° |
| 2026-04-14 21:50 | 46.80134 | -123.07812 | 29977 ft | 427 kts | 335° |
| 2026-04-14 21:50 | 46.82992 | -123.08839 | 30490 ft | 427 kts | 334° |
| 2026-04-14 21:50 | 46.85887 | -123.09882 | 30845 ft | 430 kts | 334° |
| 2026-04-14 21:50 | 46.88801 | -123.10939 | 31200 ft | 432 kts | 334° |
| 2026-04-14 21:51 | 46.91734 | -123.12005 | 31554 ft | 434 kts | 334° |
| 2026-04-14 21:51 | 46.94680 | -123.13076 | 31923 ft | 437 kts | 334° |
| 2026-04-14 21:51 | 46.97632 | -123.14148 | 32265 ft | 439 kts | 334° |
| 2026-04-14 21:51 | 47.00570 | -123.15215 | 32579 ft | 441 kts | 334° |
| 2026-04-14 21:52 | 47.03597 | -123.16312 | 32955 ft | 442 kts | 334° |
| 2026-04-14 21:52 | 47.06584 | -123.17395 | 33238 ft | 442 kts | 334° |
| 2026-04-14 21:52 | 47.09491 | -123.18457 | 33409 ft | 444 kts | 334° |
| 2026-04-14 21:52 | 47.12452 | -123.19541 | 33598 ft | 445 kts | 334° |
| 2026-04-14 21:53 | 47.15453 | -123.20637 | 33841 ft | 444 kts | 334° |
| 2026-04-14 21:53 | 47.18453 | -123.21734 | 34087 ft | 444 kts | 334° |
| 2026-04-14 21:53 | 47.21446 | -123.22830 | 34283 ft | 444 kts | 334° |
| 2026-04-14 21:53 | 47.24448 | -123.23931 | 34571 ft | 443 kts | 334° |
| 2026-04-14 21:54 | 47.27433 | -123.25021 | 34842 ft | 441 kts | 334° |
| 2026-04-14 21:54 | 47.30418 | -123.26120 | 34984 ft | 442 kts | 334° |
| 2026-04-14 21:54 | 47.33399 | -123.27222 | 35163 ft | 443 kts | 334° |
| 2026-04-14 21:54 | 47.36385 | -123.28327 | 35352 ft | 443 kts | 334° |
| 2026-04-14 21:55 | 47.39372 | -123.29436 | 35542 ft | 443 kts | 334° |
| 2026-04-14 21:55 | 47.42367 | -123.30542 | 35739 ft | 443 kts | 334° |
| 2026-04-14 21:55 | 47.45366 | -123.31648 | 35920 ft | 444 kts | 334° |
| 2026-04-14 21:55 | 47.48353 | -123.32750 | 35972 ft | 441 kts | 334° |
| 2026-04-14 21:56 | 47.54259 | -123.34982 | 35969 ft | 441 kts | 334° |
| 2026-04-14 21:56 | 47.60224 | -123.37178 | 35954 ft | 442 kts | 334° |
| 2026-04-14 21:57 | 47.66197 | -123.39391 | 35959 ft | 442 kts | 334° |
| 2026-04-14 21:57 | 47.72133 | -123.41615 | 35947 ft | 442 kts | 334° |
| 2026-04-14 21:58 | 47.78093 | -123.43819 | 35913 ft | 442 kts | 334° |
| 2026-04-14 21:58 | 47.83883 | -123.46620 | 35920 ft | 427 kts | 322° |
| 2026-04-14 21:59 | 47.86364 | -123.48841 | 35903 ft | 412 kts | 314° |
| 2026-04-14 21:59 | 47.88548 | -123.51545 | 35912 ft | 405 kts | 307° |
| 2026-04-14 21:59 | 47.91896 | -123.58044 | 35903 ft | 384 kts | 292° |
| 2026-04-14 22:00 | 47.94450 | -123.65068 | 35905 ft | 388 kts | 292° |
| 2026-04-14 22:00 | 47.97064 | -123.72075 | 35895 ft | 382 kts | 292° |
| 2026-04-14 22:01 | 47.99645 | -123.79032 | 35909 ft | 384 kts | 292° |
| 2026-04-14 22:01 | 48.02201 | -123.85970 | 35910 ft | 382 kts | 292° |
| 2026-04-14 22:02 | 48.04777 | -123.92989 | 35909 ft | 388 kts | 292° |
| 2026-04-14 22:02 | 48.07363 | -124.00056 | 35898 ft | 387 kts | 292° |
| 2026-04-14 22:03 | 48.09940 | -124.07122 | 35889 ft | 387 kts | 292° |
| 2026-04-14 22:03 | 48.12516 | -124.14202 | 35894 ft | 386 kts | 292° |
| 2026-04-14 22:04 | 48.15086 | -124.21273 | 35879 ft | 387 kts | 292° |
| 2026-04-14 22:04 | 48.17646 | -124.28343 | 35882 ft | 386 kts | 292° |
| 2026-04-14 22:05 | 48.20159 | -124.35307 | 35878 ft | 386 kts | 292° |
| 2026-04-14 22:05 | 48.22705 | -124.42392 | 35993 ft | 379 kts | 292° |
| 2026-04-14 22:06 | 48.23945 | -124.45806 | 35970 ft | 366 kts | 291° |
| 2026-04-14 22:06 | 48.25151 | -124.49156 | 35673 ft | 368 kts | 291° |
| 2026-04-14 22:06 | 48.26380 | -124.52619 | 35440 ft | 382 kts | 291° |
| 2026-04-14 22:06 | 48.27772 | -124.56059 | 35182 ft | 391 kts | 298° |
| 2026-04-14 22:07 | 48.29594 | -124.59147 | 34943 ft | 400 kts | 307° |
| 2026-04-14 22:07 | 48.31832 | -124.61787 | 34736 ft | 421 kts | 316° |
| 2026-04-14 22:07 | 48.34483 | -124.63853 | 34492 ft | 436 kts | 327° |
| 2026-04-14 22:07 | 48.37407 | -124.65149 | 34266 ft | 451 kts | 336° |
| 2026-04-14 22:08 | 48.40491 | -124.66075 | 34026 ft | 452 kts | 336° |
| 2026-04-14 22:08 | 48.43567 | -124.67021 | 33522 ft | 451 kts | 335° |
| 2026-04-14 22:08 | 48.46638 | -124.67987 | 32505 ft | 450 kts | 335° |
| 2026-04-14 22:08 | 48.49710 | -124.68962 | 30895 ft | 452 kts | 334° |
| 2026-04-14 22:09 | 48.52789 | -124.69948 | 29577 ft | 452 kts | 334° |
| 2026-04-14 22:09 | 48.55864 | -124.70942 | 28469 ft | 451 kts | 334° |
| 2026-04-14 22:09 | 48.58921 | -124.71924 | 27657 ft | 446 kts | 335° |
| 2026-04-14 22:09 | 48.61924 | -124.72877 | 27180 ft | 434 kts | 335° |
| 2026-04-14 22:10 | 48.64839 | -124.73797 | 26906 ft | 422 kts | 334° |
| 2026-04-14 22:10 | 48.67683 | -124.74717 | 26654 ft | 426 kts | 334° |
| 2026-04-14 22:10 | 48.70601 | -124.75671 | 26369 ft | 427 kts | 334° |
| 2026-04-14 22:10 | 48.73505 | -124.76620 | 25692 ft | 429 kts | 335° |
| 2026-04-14 22:11 | 48.76418 | -124.77569 | 25170 ft | 426 kts | 335° |
| 2026-04-14 22:11 | 48.79312 | -124.78510 | 24358 ft | 425 kts | 336° |
| 2026-04-14 22:11 | 48.82180 | -124.79437 | 23794 ft | 418 kts | 336° |
| 2026-04-14 22:11 | 48.85023 | -124.80351 | 23039 ft | 414 kts | 336° |
| 2026-04-14 22:12 | 48.87810 | -124.81259 | 22461 ft | 405 kts | 336° |
| 2026-04-14 22:12 | 48.90534 | -124.82152 | 21839 ft | 396 kts | 336° |
| 2026-04-14 22:12 | 48.93179 | -124.83017 | 21208 ft | 391 kts | 337° |
| 2026-04-14 22:12 | 48.95815 | -124.83872 | 20601 ft | 384 kts | 337° |
| 2026-04-14 22:13 | 48.98405 | -124.84720 | 19997 ft | 378 kts | 337° |
| 2026-04-14 22:13 | 49.01037 | -124.85604 | 19432 ft | 400 kts | 337° |
| 2026-04-14 22:13 | 49.03794 | -124.86526 | 19104 ft | 408 kts | 338° |
| 2026-04-14 22:13 | 49.06576 | -124.87443 | 18445 ft | 410 kts | 338° |
| 2026-04-14 22:14 | 49.09376 | -124.88361 | 17457 ft | 414 kts | 339° |
| 2026-04-14 22:14 | 49.12187 | -124.89286 | 16586 ft | 408 kts | 339° |
| 2026-04-14 22:14 | 49.14934 | -124.90182 | 15897 ft | 399 kts | 340° |
| 2026-04-14 22:14 | 49.17603 | -124.91026 | 15513 ft | 381 kts | 340° |
| 2026-04-14 22:15 | 49.20162 | -124.91859 | 14995 ft | 372 kts | 340° |
| 2026-04-14 22:15 | 49.22639 | -124.92681 | 14380 ft | 366 kts | 340° |
| 2026-04-14 22:15 | 49.25110 | -124.93501 | 13763 ft | 360 kts | 340° |
| 2026-04-14 22:15 | 49.27546 | -124.94312 | 13132 ft | 353 kts | 341° |
| 2026-04-14 22:16 | 49.29923 | -124.95099 | 12551 ft | 345 kts | 341° |
| 2026-04-14 22:16 | 49.32252 | -124.95866 | 11989 ft | 339 kts | 341° |
| 2026-04-14 22:16 | 49.34654 | -124.96677 | 11386 ft | 372 kts | 341° |
| 2026-04-14 22:16 | 49.37246 | -124.97557 | 10744 ft | 385 kts | 342° |
| 2026-04-14 22:17 | 49.39828 | -124.98405 | 10347 ft | 368 kts | 342° |
| 2026-04-14 22:17 | 49.42220 | -124.99175 | 10091 ft | 343 kts | 342° |
| 2026-04-14 22:17 | 49.44493 | -124.99908 | 9832 ft | 316 kts | 341° |
| 2026-04-14 22:17 | 49.46551 | -125.00575 | 9463 ft | 301 kts | 341° |
| 2026-04-14 22:18 | 49.48572 | -125.01252 | 9009 ft | 293 kts | 341° |
| 2026-04-14 22:18 | 49.50541 | -125.01933 | 8812 ft | 289 kts | 341° |
| 2026-04-14 22:18 | 49.52531 | -125.02651 | 8702 ft | 294 kts | 341° |
| 2026-04-14 22:18 | 49.54498 | -125.03315 | 8613 ft | 283 kts | 342° |
| 2026-04-14 22:19 | 49.56366 | -125.03916 | 8457 ft | 266 kts | 342° |
| 2026-04-14 22:19 | 49.59763 | -125.05021 | 7785 ft | 247 kts | 341° |
| 2026-04-14 22:19 | 49.61472 | -125.05608 | 7026 ft | 256 kts | 342° |
| 2026-04-14 22:20 | 49.63256 | -125.06221 | 6628 ft | 276 kts | 342° |
| 2026-04-14 22:20 | 49.65162 | -125.06864 | 6247 ft | 279 kts | 343° |
| 2026-04-14 22:20 | 49.67042 | -125.07485 | 5857 ft | 275 kts | 343° |
| 2026-04-14 22:20 | 49.68926 | -125.08116 | 5464 ft | 278 kts | 343° |
| 2026-04-14 22:21 | 49.70788 | -125.08751 | 5085 ft | 270 kts | 345° |
| 2026-04-14 22:21 | 49.72638 | -125.09362 | 4711 ft | 276 kts | 345° |
| 2026-04-14 22:21 | 49.74479 | -125.09968 | 4554 ft | 263 kts | 345° |
| 2026-04-14 22:21 | 49.76257 | -125.10562 | 4058 ft | 258 kts | 345° |
| 2026-04-14 22:22 | 49.78016 | -125.11155 | 3957 ft | 271 kts | 345° |
| 2026-04-14 22:22 | 49.79870 | -125.11788 | 3835 ft | 266 kts | 345° |
| 2026-04-14 22:22 | 49.81633 | -125.12155 | 3686 ft | 248 kts | 2° |
| 2026-04-14 22:22 | 49.83201 | -125.11426 | 3514 ft | 233 kts | 32° |
| 2026-04-14 22:23 | 49.84247 | -125.09672 | 3308 ft | 214 kts | 72° |
| 2026-04-14 22:23 | 49.84335 | -125.07535 | 3129 ft | 191 kts | 113° |
| 2026-04-14 22:23 | 49.83603 | -125.06022 | 3025 ft | 168 kts | 145° |
| 2026-04-14 22:23 | 49.82686 | -125.04953 | 2975 ft | 164 kts | 148° |
| 2026-04-14 22:24 | 49.81765 | -125.03893 | 2781 ft | 163 kts | 146° |
| 2026-04-14 22:24 | 49.80872 | -125.02805 | 2554 ft | 162 kts | 145° |
| 2026-04-14 22:24 | 49.80039 | -125.01743 | 2317 ft | 151 kts | 144° |
| 2026-04-14 22:24 | 49.79269 | -125.00728 | 2123 ft | 139 kts | 142° |
| 2026-04-14 22:25 | 49.78561 | -124.99765 | 1934 ft | 138 kts | 142° |
| 2026-04-14 22:25 | 49.77855 | -124.98796 | 1743 ft | 130 kts | 140° |
| 2026-04-14 22:25 | 49.77182 | -124.97852 | 1567 ft | 134 kts | 139° |
| 2026-04-14 22:25 | 49.76528 | -124.96890 | 1378 ft | 124 kts | 138° |
| 2026-04-14 22:26 | 49.75909 | -124.95920 | 1192 ft | 131 kts | 135° |
| 2026-04-14 22:26 | 49.75285 | -124.94949 | 1017 ft | 124 kts | 137° |
| 2026-04-14 22:26 | 49.74644 | -124.94001 | 824 ft | 129 kts | 140° |
| 2026-04-14 22:26 | 49.74009 | -124.93072 | 652 ft | 127 kts | 140° |
| 2026-04-14 22:27 | 49.73368 | -124.92106 | 469 ft | 127 kts | 136° |
| 2026-04-14 22:27 | 49.72742 | -124.91113 | 312 ft | 134 kts | 139° |
| 2026-04-14 22:27 | 49.72077 | -124.90112 | 179 ft | 131 kts | 138° |
| 2026-04-14 22:27 | 49.71403 | -124.89118 | 97 ft | 132 kts | 138° |
| 2026-04-14 22:28 | 49.70870 | -124.88300 | 91 ft | 81 kts | 135° |
| 2026-04-14 22:28 | 49.70507 | -124.87755 | 90 ft | 69 kts | 136° |
| 2026-04-14 22:28 | 49.70306 | -124.87435 | 91 ft | 31 kts | 134° |
| 2026-04-14 22:28 | 49.70157 | -124.87251 | 86 ft | 23 kts | 164° |
| 2026-04-14 22:29 | 49.70103 | -124.87316 | 88 ft | 6 kts | 279° |
| 2026-04-14 22:29 | 49.70126 | -124.87374 | 87 ft | 7 kts | 312° |
| 2026-04-14 22:29 | 49.70161 | -124.87432 | 86 ft | 8 kts | 313° |
| 2026-04-14 22:29 | 49.70204 | -124.87498 | 88 ft | 9 kts | 316° |
| 2026-04-14 22:30 | 49.70266 | -124.87591 | 89 ft | 24 kts | 316° |
| 2026-04-14 22:30 | 49.70408 | -124.87800 | 90 ft | 29 kts | 316° |
| 2026-04-14 22:30 | 49.70517 | -124.88052 | 87 ft | 27 kts | 315° |
| 2026-04-14 22:30 | 49.70620 | -124.88215 | 91 ft | 0 kts | 314° |
| 2026-04-14 22:36 | 49.70621 | -124.88216 | 91 ft | 2 kts | 314° |
| 2026-04-14 22:36 | 49.70811 | -124.88535 | 95 ft | 88 kts | 310° |
| 2026-04-14 22:37 | 49.71237 | -124.89258 | 94 ft | 83 kts | 314° |
| 2026-04-14 22:37 | 49.71392 | -124.89801 | 95 ft | 47 kts | 248° |
| 2026-04-14 22:37 | 49.71408 | -124.90083 | 95 ft | 10 kts | 322° |
| 2026-04-14 22:37 | 49.71451 | -124.90082 | 95 ft | 14 kts | 2° |
| 2026-04-14 22:38 | 49.71549 | -124.90130 | 96 ft | 11 kts | 309° |
| 2026-04-14 22:38 | 49.71565 | -124.90172 | 95 ft | 0 kts | 294° |